Time;durP1;ratioP1;P1;durP2;ratioP2;P2;SDS_P1;SDS_P2;PMS_P1;PMS_P2;Temp;Humidity;BMP_temperature;BMP_pressure;BME280_temperature;BME280_humidity;BME280_pressure;Samples;Min_cycle;Max_cycle;Signal;HPM_P1;HPM_P2
2021/03/26 00:00:01;;;;;;;20.52;10.35;;;;;;;2.19;52.03;95113.69;4229904;28;20075;-69
2021/03/26 00:02:03;;;;;;;18.65;10.80;;;;;;;2.18;51.86;95109.44;4228108;28;20051;-70
2021/03/26 00:04:05;;;;;;;18.02;10.50;;;;;;;2.20;52.83;95114.53;4208932;28;20140;-69
2021/03/26 00:06:12;;;;;;;15.80;10.27;;;;;;;2.03;52.57;95118.19;4193344;28;20102;-70
2021/03/26 00:08:15;;;;;;;18.02;11.18;;;;;;;1.79;53.38;95123.97;4208271;28;20115;-70
2021/03/26 00:10:16;;;;;;;17.27;10.23;;;;;;;1.69;53.90;95119.47;4208130;28;20078;-71
2021/03/26 00:12:17;;;;;;;18.58;11.18;;;;;;;1.66;53.85;95132.53;4226708;28;20601;-70
2021/03/26 00:14:19;;;;;;;18.33;10.85;;;;;;;1.61;54.11;95125.94;4209663;28;20048;-70
2021/03/26 00:16:21;;;;;;;19.20;12.60;;;;;;;1.61;54.20;95125.94;4209259;28;20067;-69
2021/03/26 00:18:23;;;;;;;17.63;10.43;;;;;;;1.66;53.78;95122.22;4208913;28;20051;-71
2021/03/26 00:20:24;;;;;;;16.73;10.35;;;;;;;1.72;53.40;95121.84;4209846;28;20556;-71
2021/03/26 00:22:26;;;;;;;17.33;10.02;;;;;;;1.78;52.87;95129.22;4223679;28;20051;-70
2021/03/26 00:24:27;;;;;;;22.35;12.82;;;;;;;1.75;53.97;95124.25;4208062;28;20051;-71
2021/03/26 00:26:29;;;;;;;21.55;12.40;;;;;;;1.80;53.84;95123.03;4227164;28;20437;-70
2021/03/26 00:28:40;;;;;;;27.63;17.23;;;;;;;1.77;54.69;95122.41;4186216;28;20527;-70
2021/03/26 00:30:41;;;;;;;30.15;16.75;;;;;;;1.65;54.54;95116.22;4226781;28;20055;-72
2021/03/26 00:32:44;;;;;;;37.03;21.08;;;;;;;1.39;56.27;95126.41;4227921;28;20067;-70
2021/03/26 00:34:45;;;;;;;49.80;28.83;;;;;;;1.14;57.68;95129.63;4226450;28;20060;-70
2021/03/26 00:36:47;;;;;;;50.08;28.75;;;;;;;1.16;57.88;95122.63;4208174;28;20066;-70
2021/03/26 00:38:48;;;;;;;41.42;23.15;;;;;;;1.28;57.29;95117.66;4204601;28;20649;-71
2021/03/26 00:40:50;;;;;;;35.47;20.50;;;;;;;1.36;56.41;95121.44;4211544;28;20044;-72
2021/03/26 00:42:51;;;;;;;57.15;31.70;;;;;;;1.50;57.45;95122.34;4226555;28;20047;-69
2021/03/26 00:44:53;;;;;;;61.38;34.53;;;;;;;1.10;60.02;95116.97;4227322;28;20051;-71
2021/03/26 00:46:54;;;;;;;46.92;28.27;;;;;;;1.14;59.79;95124.47;4212097;28;20545;-70
2021/03/26 00:48:56;;;;;;;61.75;33.83;;;;;;;1.19;59.05;95125.03;4208704;28;20414;-71
2021/03/26 00:51:00;;;;;;;73.10;36.10;;;;;;;1.11;60.15;95118.66;4227913;28;20051;-71
2021/03/26 00:53:11;;;;;;;59.65;32.20;;;;;;;1.06;60.10;95123.28;4226147;28;20568;-70
2021/03/26 00:55:13;;;;;;;57.53;33.40;;;;;;;0.94;60.75;95127.41;4216952;28;20051;-71
2021/03/26 00:57:15;;;;;;;62.63;34.60;;;;;;;0.48;62.62;95125.72;4228313;28;20052;-68
2021/03/26 00:59:19;;;;;;;57.15;32.55;;;;;;;0.52;61.57;95126.41;4226513;28;20054;-70
2021/03/26 01:01:20;;;;;;;60.45;32.85;;;;;;;0.68;61.54;95123.75;4224203;28;20060;-73
2021/03/26 01:03:25;;;;;;;32.47;18.88;;;;;;;0.86;58.32;95122.69;4222426;28;20514;-70
2021/03/26 01:05:31;;;;;;;42.15;24.33;;;;;;;1.06;58.00;95124.09;4215648;28;20226;-70
2021/03/26 01:07:32;;;;;;;49.72;28.02;;;;;;;1.19;58.26;95125.03;4215981;28;20067;-69
2021/03/26 01:09:34;;;;;;;36.58;20.33;;;;;;;1.32;56.50;95124.28;4226992;28;20054;-71
2021/03/26 01:11:37;;;;;;;45.75;25.40;;;;;;;1.34;57.17;95120.69;4209366;28;20040;-70
2021/03/26 01:13:52;;;;;;;41.00;21.70;;;;;;;1.40;55.80;95119.50;4221897;28;20097;-70
2021/03/26 01:15:54;;;;;;;40.75;20.70;;;;;;;1.42;55.77;95126.22;4201743;28;20056;-70
2021/03/26 01:17:57;;;;;;;44.15;25.13;;;;;;;1.17;57.07;95120.88;4229673;28;20487;-70
2021/03/26 01:19:58;;;;;;;40.15;21.83;;;;;;;1.16;56.55;95120.06;4230681;28;20043;-72
2021/03/26 01:22:00;;;;;;;36.30;19.67;;;;;;;1.29;55.42;95122.72;4229491;28;20051;-70
2021/03/26 01:24:02;;;;;;;33.67;18.85;;;;;;;1.41;55.31;95127.13;4221330;28;20109;-72
2021/03/26 01:26:04;;;;;;;26.77;16.33;;;;;;;1.50;53.79;95120.56;4230896;28;20059;-70
2021/03/26 01:28:06;;;;;;;28.02;15.32;;;;;;;1.61;53.24;95117.34;4229510;28;20456;-70
2021/03/26 01:30:10;;;;;;;37.85;22.13;;;;;;;1.62;53.97;95116.44;4212624;28;20095;-69
2021/03/26 01:32:12;;;;;;;48.28;25.98;;;;;;;1.39;55.08;95120.41;4229175;28;20047;-70
2021/03/26 01:34:13;;;;;;;43.75;24.30;;;;;;;1.30;55.63;95120.97;4210477;28;20637;-70
2021/03/26 01:36:15;;;;;;;43.58;23.63;;;;;;;1.33;55.50;95123.34;4229233;28;20078;-71
2021/03/26 01:38:18;;;;;;;28.63;14.98;;;;;;;1.42;53.72;95125.41;4209976;28;20388;-71
2021/03/26 01:40:25;;;;;;;24.83;14.07;;;;;;;1.48;53.16;95125.00;4222094;28;20043;-69
2021/03/26 01:42:30;;;;;;;29.13;15.02;;;;;;;1.55;53.13;95110.81;4198344;28;20048;-71
2021/03/26 01:44:32;;;;;;;19.42;11.18;;;;;;;1.61;51.92;95118.19;4230024;28;20104;-70
2021/03/26 01:46:35;;;;;;;17.65;10.27;;;;;;;1.70;51.57;95118.53;4229376;28;20649;-69
2021/03/26 01:48:39;;;;;;;19.20;10.90;;;;;;;1.74;51.89;95120.84;4210703;28;20045;-70
2021/03/26 01:50:41;;;;;;;16.77;9.70;;;;;;;1.70;51.64;95124.53;4227175;28;20056;-69
2021/03/26 01:52:43;;;;;;;14.55;9.13;;;;;;;1.73;51.49;95123.50;4228922;28;20104;-71
2021/03/26 01:54:45;;;;;;;15.43;8.50;;;;;;;1.71;50.81;95121.00;4227821;28;20047;-70
2021/03/26 01:56:46;;;;;;;14.02;8.70;;;;;;;1.82;50.62;95128.91;4211667;28;20443;-70
2021/03/26 01:58:48;;;;;;;12.02;7.47;;;;;;;1.84;50.36;95127.06;4229003;28;20043;-70
2021/03/26 02:00:55;;;;;;;13.02;8.10;;;;;;;1.91;50.45;95126.69;4230075;28;20139;-71
2021/03/26 02:03:03;;;;;;;14.82;8.90;;;;;;;1.98;50.30;95133.97;4215073;28;20054;-82
2021/03/26 02:05:09;;;;;;;16.92;9.80;;;;;;;2.04;50.29;95131.00;4217297;28;20523;-82
2021/03/26 02:07:11;;;;;;;16.08;8.73;;;;;;;1.93;50.36;95135.19;4237097;28;20058;-82
2021/03/26 02:09:17;;;;;;;13.50;8.18;;;;;;;1.86;50.64;95137.31;4235711;28;20070;-84
2021/03/26 02:11:36;;;;;;;13.25;8.02;;;;;;;1.86;50.73;95145.06;4220017;28;20044;-82
2021/03/26 02:13:39;;;;;;;12.85;8.70;;;;;;;1.69;51.03;95147.88;4217287;28;20055;-82
2021/03/26 02:15:44;;;;;;;14.65;9.10;;;;;;;1.61;51.15;95146.59;4218380;28;20044;-81
2021/03/26 02:17:46;;;;;;;14.85;8.07;;;;;;;1.67;51.54;95155.69;4217399;28;20048;-82
2021/03/26 02:19:58;;;;;;;13.85;9.00;;;;;;;1.66;51.69;95163.53;4218343;28;20060;-84
2021/03/26 02:22:00;;;;;;;12.65;8.73;;;;;;;1.63;51.70;95160.25;4211355;28;20067;-82
2021/03/26 02:24:05;;;;;;;14.30;8.18;;;;;;;1.49;51.86;95157.66;4218811;28;20054;-82
2021/03/26 02:26:38;;;;;;;12.55;8.00;;;;;;;1.58;52.05;95151.94;4218317;28;20052;-82
2021/03/26 02:28:40;;;;;;;16.58;9.38;;;;;;;1.57;52.39;95149.44;4218962;28;20048;-82
2021/03/26 02:30:45;;;;;;;18.63;10.98;;;;;;;1.58;52.57;95154.50;4219893;28;20048;-82
2021/03/26 02:32:47;;;;;;;20.08;13.00;;;;;;;1.47;53.33;95150.94;4218823;28;20097;-83
2021/03/26 02:35:19;;;;;;;22.92;13.90;;;;;;;1.47;54.05;95153.53;4238467;28;20054;-82
2021/03/26 02:37:20;;;;;;;38.08;23.20;;;;;;;1.34;57.79;95151.66;4226844;28;20048;-81
2021/03/26 02:39:26;;;;;;;45.35;24.27;;;;;;;1.02;59.08;95164.72;4237411;28;20054;-81
2021/03/26 02:41:34;;;;;;;32.15;19.50;;;;;;;1.11;58.27;95167.69;4220855;28;20036;-81
2021/03/26 02:43:43;;;;;;;40.50;23.15;;;;;;;1.17;58.73;95163.00;4224602;28;20040;-82
2021/03/26 02:46:10;;;;;;;43.13;22.42;;;;;;;1.27;58.08;95159.84;4224649;28;20051;-83
2021/03/26 02:48:19;;;;;;;41.03;23.20;;;;;;;1.36;58.48;95165.31;4206698;28;20047;-81
2021/03/26 02:50:27;;;;;;;45.42;24.00;;;;;;;1.43;58.02;95173.50;4224325;28;20054;-80
2021/03/26 02:52:52;;;;;;;39.28;23.92;;;;;;;1.49;58.33;95170.56;4228108;28;20044;-82
2021/03/26 02:55:13;;;;;;;40.53;23.02;;;;;;;1.50;58.40;95163.66;4228277;28;20048;-81
2021/03/26 02:57:19;;;;;;;38.20;22.80;;;;;;;1.48;58.68;95180.97;4244201;28;20051;-82
2021/03/26 02:59:32;;;;;;;40.90;23.95;;;;;;;1.49;58.53;95183.47;4227414;28;20062;-82
2021/03/26 03:01:54;;;;;;;42.25;23.45;;;;;;;1.49;58.77;95182.66;4213661;28;20040;-81
2021/03/26 03:04:00;;;;;;;43.95;23.58;;;;;;;1.51;58.58;95184.22;4197296;28;20112;-81
2021/03/26 03:06:10;;;;;;;42.08;24.42;;;;;;;1.49;59.19;95180.91;4233679;28;20120;-80
2021/03/26 03:08:21;;;;;;;41.42;24.33;;;;;;;1.48;58.99;95186.97;4219750;28;20050;-81
2021/03/26 03:10:42;;;;;;;50.97;25.52;;;;;;;1.46;59.58;95183.66;4206835;28;20055;-84
2021/03/26 03:12:44;;;;;;;49.70;25.70;;;;;;;1.43;60.08;95187.25;4230407;28;20458;-83
2021/03/26 03:14:54;;;;;;;41.00;24.45;;;;;;;1.41;60.07;95193.44;4219719;28;20052;-82
2021/03/26 03:17:10;;;;;;;42.60;24.95;;;;;;;1.37;59.96;95186.78;4223412;28;20051;-83
2021/03/26 03:19:23;;;;;;;43.50;25.77;;;;;;;1.34;60.47;95194.72;4222960;28;20054;-83
2021/03/26 03:21:45;;;;;;;43.08;24.23;;;;;;;1.16;60.99;95192.31;4209600;28;20044;-82
2021/03/26 03:23:52;;;;;;;44.53;25.85;;;;;;;1.05;61.29;95188.69;4220914;28;20105;-82
2021/03/26 03:25:58;;;;;;;44.72;24.42;;;;;;;1.00;61.44;95191.53;4225813;28;20052;-82
2021/03/26 03:28:30;;;;;;;31.17;16.00;;;;;;;1.08;58.97;95194.50;4234021;28;20048;-82
2021/03/26 03:31:05;;;;;;;23.88;14.38;;;;;;;1.07;57.07;95195.41;4223903;28;20123;-82
2021/03/26 03:33:09;;;;;;;;;;;;;;;1.17;56.71;95196.53;4241678;28;20047;-82
2021/03/26 03:35:41;;;;;;;23.83;13.93;;;;;;;1.09;56.25;95201.31;4209082;28;19971;-82
2021/03/26 03:38:21;;;;;;;20.50;12.07;;;;;;;1.20;55.58;95198.94;4193114;28;20105;-83
2021/03/26 03:40:28;;;;;;;18.70;10.25;;;;;;;1.30;54.19;95203.56;4133729;28;20050;-81
2021/03/26 03:42:57;;;;;;;21.90;12.32;;;;;;;1.39;54.32;95200.44;4162100;28;20045;-82
2021/03/26 03:45:00;;;;;;;17.58;10.38;;;;;;;1.45;53.31;95205.25;4203295;28;20049;-82
2021/03/26 03:47:09;;;;;;;18.92;10.27;;;;;;;1.52;53.32;95203.13;4193199;28;20064;-81
2021/03/26 03:49:30;;;;;;;20.00;10.93;;;;;;;1.43;53.80;95207.09;4198498;28;20087;-83
2021/03/26 03:51:44;;;;;;;17.00;11.60;;;;;;;1.44;54.33;95208.72;4205726;28;20045;-83
2021/03/26 03:53:59;;;;;;;22.85;11.93;;;;;;;1.48;54.49;95217.94;4205324;28;20053;-83
2021/03/26 03:56:02;;;;;;;18.90;10.70;;;;;;;1.45;53.58;95212.16;4204909;28;20050;-83
2021/03/26 03:58:08;;;;;;;16.80;10.50;;;;;;;1.47;53.89;95216.31;4210157;28;20088;-80
2021/03/26 04:00:18;;;;;;;13.82;9.38;;;;;;;1.47;53.47;95216.31;4206765;28;20127;-82
2021/03/26 04:02:23;;;;;;;17.45;9.98;;;;;;;1.47;52.94;95211.16;4201947;28;20083;-84
2021/03/26 04:04:45;;;;;;;18.85;9.88;;;;;;;1.43;52.98;95215.66;4199745;28;20175;-71
2021/03/26 04:06:59;;;;;;;17.40;9.90;;;;;;;1.47;52.56;95215.47;4225953;28;20100;-70
2021/03/26 04:09:05;;;;;;;21.77;10.18;;;;;;;1.34;53.01;95215.38;4190734;28;20052;-70
2021/03/26 04:11:29;;;;;;;15.05;9.60;;;;;;;1.24;53.78;95222.81;4192487;28;20071;-69
2021/03/26 04:13:36;;;;;;;20.90;11.38;;;;;;;1.24;54.36;95212.50;4192869;28;20070;-69
2021/03/26 04:15:42;;;;;;;19.35;10.00;;;;;;;1.20;54.39;95214.41;4193654;28;20041;-70
2021/03/26 04:17:45;;;;;;;22.92;13.90;;;;;;;1.13;54.96;95215.69;4192576;28;20052;-70
2021/03/26 04:20:09;;;;;;;19.55;12.18;;;;;;;0.92;55.07;95216.94;4193169;28;20052;-70
2021/03/26 04:22:17;;;;;;;18.67;12.77;;;;;;;0.86;55.71;95220.72;4192662;28;20044;-72
2021/03/26 04:24:29;;;;;;;25.98;14.95;;;;;;;0.89;56.31;95219.69;4191725;28;20780;-71
2021/03/26 04:26:52;;;;;;;35.05;15.52;;;;;;;0.89;57.32;95228.28;4225880;28;20482;-69
2021/03/26 04:29:01;;;;;;;42.97;24.85;;;;;;;0.65;59.25;95225.34;4193291;28;20050;-70
2021/03/26 04:31:06;;;;;;;45.05;29.52;;;;;;;0.45;61.65;95226.41;4192874;28;20531;-69
2021/03/26 04:33:08;;;;;;;45.80;29.38;;;;;;;0.39;61.39;95227.59;4206740;28;20079;-68
2021/03/26 04:35:12;;;;;;;45.45;25.00;;;;;;;0.42;61.38;95230.94;4208305;28;20490;-70
2021/03/26 04:37:30;;;;;;;;;;;;;;;0.17;62.05;95238.25;4193574;28;20415;-70
2021/03/26 04:39:46;;;;;;;37.20;22.50;;;;;;;-0.07;63.13;95234.41;4208561;28;19920;-70
2021/03/26 04:41:56;;;;;;;37.38;22.55;;;;;;;0.02;62.83;95238.25;4191114;28;20464;-71
2021/03/26 04:44:36;;;;;;;35.67;21.45;;;;;;;0.12;62.10;95237.66;4208566;28;20044;-71
2021/03/26 04:46:49;;;;;;;37.58;22.40;;;;;;;0.32;61.78;95236.59;4210573;28;20051;-71
2021/03/26 04:49:13;;;;;;;36.25;20.50;;;;;;;0.49;61.48;95248.53;4220875;28;20089;-71
2021/03/26 04:51:41;;;;;;;33.70;20.20;;;;;;;0.64;61.08;95244.28;4198224;28;20044;-70
2021/03/26 04:53:46;;;;;;;35.63;21.23;;;;;;;0.81;60.63;95251.91;4211303;28;20055;-73
2021/03/26 04:55:52;;;;;;;31.35;20.25;;;;;;;0.96;60.06;95254.53;4212212;28;20048;-71
2021/03/26 04:57:57;;;;;;;36.10;21.10;;;;;;;1.08;59.63;95255.59;4212347;28;20052;-69
2021/03/26 05:00:16;;;;;;;46.50;22.30;;;;;;;1.20;59.58;95257.47;4211696;28;20054;-70
2021/03/26 05:02:20;;;;;;;39.35;22.55;;;;;;;1.15;60.55;95251.75;4213138;28;20785;-71
2021/03/26 05:04:25;;;;;;;39.60;22.50;;;;;;;1.16;60.35;95256.81;4230363;28;20620;-70
2021/03/26 05:06:29;;;;;;;38.83;21.88;;;;;;;1.20;60.09;95266.03;4198839;28;20048;-72
2021/03/26 05:08:32;;;;;;;37.17;21.90;;;;;;;1.28;60.10;95262.19;4211038;28;20086;-71
2021/03/26 05:10:35;;;;;;;37.08;22.17;;;;;;;1.35;59.75;95269.47;4194503;28;20044;-72
2021/03/26 05:12:44;;;;;;;37.50;21.65;;;;;;;1.36;60.50;95272.91;4211970;28;20048;-70
2021/03/26 05:14:50;;;;;;;38.33;21.77;;;;;;;1.36;59.64;95270.34;4211340;28;20048;-71
2021/03/26 05:17:16;;;;;;;34.30;21.42;;;;;;;1.36;59.66;95275.50;4210159;28;20043;-70
2021/03/26 05:19:33;;;;;;;39.45;21.42;;;;;;;1.35;59.78;95278.97;4212754;28;20545;-70
2021/03/26 05:21:40;;;;;;;39.85;20.42;;;;;;;1.41;59.17;95271.72;4229150;28;20040;-82
2021/03/26 05:23:51;;;;;;;31.73;19.75;;;;;;;1.51;59.52;95284.09;4219722;28;20126;-81
2021/03/26 05:25:56;;;;;;;30.38;18.30;;;;;;;1.58;58.77;95286.22;4219961;28;20060;-84
2021/03/26 05:27:58;;;;;;;28.67;17.67;;;;;;;1.46;57.84;95288.69;4219485;28;20059;-82
2021/03/26 05:30:00;;;;;;;35.40;18.38;;;;;;;1.41;57.79;95287.19;4218865;28;20553;-83
2021/03/26 05:32:06;;;;;;;30.77;17.38;;;;;;;1.46;57.23;95286.91;4219085;28;20052;-83
2021/03/26 05:34:39;;;;;;;36.22;18.77;;;;;;;1.52;57.31;95286.56;4238148;28;20131;-84
2021/03/26 05:36:56;;;;;;;35.80;19.27;;;;;;;1.61;57.21;95282.63;4192282;28;20044;-83
2021/03/26 05:39:07;;;;;;;32.13;18.52;;;;;;;1.73;56.85;95291.41;4206230;28;20044;-83
2021/03/26 05:41:24;;;;;;;35.58;19.15;;;;;;;1.82;57.19;95293.44;4236867;28;20121;-84
2021/03/26 05:43:53;;;;;;;36.28;19.20;;;;;;;1.93;56.45;95296.19;4216169;28;20058;-81
2021/03/26 05:46:14;;;;;;;34.55;19.52;;;;;;;2.03;56.71;95289.56;4237399;28;20062;-86
2021/03/26 05:48:25;;;;;;;35.47;19.77;;;;;;;2.15;56.53;95297.50;4236607;28;20048;-83
2021/03/26 05:50:48;;;;;;;38.38;19.17;;;;;;;2.07;56.06;95300.56;4201834;28;20082;-84
2021/03/26 05:53:02;;;;;;;34.70;18.85;;;;;;;2.14;56.18;95293.25;4217560;28;20043;-82
2021/03/26 05:55:15;;;;;;;;;;;;;;;2.27;55.63;95299.34;4240682;28;20050;-85
2021/03/26 05:57:58;;;;;;;38.88;20.02;;;;;;;2.18;55.85;95299.91;4224363;28;19924;-84
2021/03/26 06:00:28;;;;;;;32.65;20.38;;;;;;;2.04;54.86;95309.34;4186835;28;20048;-83
2021/03/26 06:02:32;;;;;;;41.47;21.65;;;;;;;2.10;55.39;95304.69;4222787;28;20127;-84
2021/03/26 06:05:04;;;;;;;47.30;20.90;;;;;;;2.15;55.44;95302.66;4222607;28;20062;-82
2021/03/26 06:07:39;;;;;;;32.67;20.38;;;;;;;2.23;54.44;95308.19;4242257;28;20056;-84
2021/03/26 06:10:07;;;;;;;38.60;21.80;;;;;;;2.23;54.37;95303.03;4241617;28;20039;-85
2021/03/26 06:12:27;;;;;;;46.78;24.65;;;;;;;2.28;54.26;95313.94;4232049;28;20057;-84
2021/03/26 06:14:42;;;;;;;43.70;25.27;;;;;;;2.25;54.49;95314.09;4225811;28;20040;-82
2021/03/26 06:16:52;;;;;;;43.30;24.42;;;;;;;2.30;54.09;95311.25;4210556;28;20155;-84
2021/03/26 06:19:32;;;;;;;41.45;25.85;;;;;;;2.16;54.61;95310.34;4239666;28;20057;-84
2021/03/26 06:21:39;;;;;;;51.60;28.30;;;;;;;2.19;54.77;95314.47;4237998;28;20044;-85
2021/03/26 06:23:47;;;;;;;44.67;27.83;;;;;;;2.01;54.63;95321.59;4219952;28;20086;-85
2021/03/26 06:26:07;;;;;;;48.80;27.95;;;;;;;2.16;54.83;95317.25;4236338;28;20093;-84
2021/03/26 06:28:24;;;;;;;48.63;27.80;;;;;;;2.10;54.97;95320.22;4221528;28;20088;-85
2021/03/26 06:30:43;;;;;;;45.25;26.98;;;;;;;2.28;55.07;95319.13;4235485;28;20085;-86
2021/03/26 06:33:04;;;;;;;53.58;30.85;;;;;;;2.32;54.67;95322.31;4217987;28;20135;-82
2021/03/26 06:35:30;;;;;;;49.25;29.40;;;;;;;2.54;54.42;95321.81;4240640;28;20048;-82
2021/03/26 06:37:55;;;;;;;63.22;30.65;;;;;;;2.73;54.01;95324.09;4230568;28;20513;-86
2021/03/26 06:40:00;;;;;;;;;;;;;;;2.86;53.66;95328.44;4236060;28;20096;-85
2021/03/26 06:42:36;;;;;;;50.20;26.95;;;;;;;2.77;53.75;95326.41;4217462;28;19930;-83
2021/03/26 06:44:49;;;;;;;39.75;23.85;;;;;;;2.87;53.05;95330.06;4200489;28;20049;-84
2021/03/26 06:46:58;;;;;;;39.00;22.60;;;;;;;2.92;52.57;95327.19;4211053;28;20098;-84
2021/03/26 06:49:29;;;;;;;36.50;20.85;;;;;;;3.01;52.14;95333.53;4217403;28;20048;-85
2021/03/26 06:51:59;;;;;;;31.60;20.73;;;;;;;2.92;51.75;95331.53;4190259;28;20090;-85
2021/03/26 06:54:30;;;;;;;30.73;18.70;;;;;;;2.83;51.26;95341.53;4218413;28;20052;-84
2021/03/26 06:57:05;;;;;;;36.30;22.85;;;;;;;3.05;51.77;95337.59;4199122;28;20044;-84
2021/03/26 06:59:07;;;;;;;;;;;;;;;3.23;50.80;95333.84;4242687;28;20063;-83
2021/03/26 07:01:24;;;;;;;34.10;18.75;;;;;;;3.18;50.93;95340.25;4244161;28;19987;-82
2021/03/26 07:03:38;;;;;;;25.85;15.18;;;;;;;3.30;50.12;95343.81;4233055;28;20047;-84
2021/03/26 07:05:58;;;;;;;;;;;;;;;3.19;50.46;95349.69;4217826;28;20052;-82
2021/03/26 07:08:27;;;;;;;27.23;15.30;;;;;;;3.36;50.08;95356.38;4248120;27;19997;-83
2021/03/26 07:10:40;;;;;;;28.20;16.48;;;;;;;3.68;49.79;95339.53;4201045;28;20048;-85
2021/03/26 07:12:57;;;;;;;29.60;16.20;;;;;;;3.90;49.67;95341.53;4220815;28;20071;-85
2021/03/26 07:15:07;;;;;;;35.40;16.65;;;;;;;4.02;48.93;95347.69;4220725;28;20343;-84
2021/03/26 07:17:21;;;;;;;22.27;12.70;;;;;;;4.24;46.92;95348.81;4215608;28;20075;-85
2021/03/26 07:19:41;;;;;;;14.65;10.20;;;;;;;4.00;47.02;95354.72;4245927;27;20070;-85
2021/03/26 07:22:03;;;;;;;15.48;10.50;;;;;;;3.99;46.95;95347.03;4214682;28;20048;-85
2021/03/26 07:24:20;;;;;;;16.65;10.98;;;;;;;4.15;46.93;95350.28;4225209;28;20139;-86
2021/03/26 07:26:48;;;;;;;15.45;10.63;;;;;;;4.43;46.57;95350.94;4214712;28;20060;-86
2021/03/26 07:29:31;;;;;;;19.98;12.15;;;;;;;4.18;46.70;95354.41;4217053;28;20116;-85
2021/03/26 07:31:57;;;;;;;16.40;10.40;;;;;;;4.17;46.00;95352.75;4224753;28;20054;-83
2021/03/26 07:34:42;;;;;;;19.10;12.30;;;;;;;4.39;46.76;95357.28;4225059;28;20059;-85
2021/03/26 07:36:52;;;;;;;21.88;12.65;;;;;;;4.59;46.64;95348.16;4217894;28;20097;-86
2021/03/26 07:38:56;;;;;;;16.20;11.05;;;;;;;4.63;46.07;95350.41;4230081;28;20055;-86
2021/03/26 07:41:22;;;;;;;18.25;11.15;;;;;;;4.40;46.38;95359.78;4201352;28;20059;-85
2021/03/26 07:43:45;;;;;;;21.42;12.45;;;;;;;4.49;46.08;95364.31;4236867;27;20138;-85
2021/03/26 07:46:03;;;;;;;19.23;11.50;;;;;;;4.59;46.01;95353.34;4233878;28;20055;-85
2021/03/26 07:48:23;;;;;;;19.25;10.82;;;;;;;4.30;45.57;95363.94;4215941;28;20101;-84
2021/03/26 07:50:35;;;;;;;16.77;10.25;;;;;;;4.19;46.01;95362.06;4229086;28;20728;-85
2021/03/26 07:53:02;;;;;;;20.10;11.70;;;;;;;4.40;46.08;95367.56;4218293;28;20055;-84
2021/03/26 07:55:15;;;;;;;19.05;11.68;;;;;;;4.54;45.78;95370.97;4227871;28;20072;-84
2021/03/26 07:57:31;;;;;;;18.38;10.27;;;;;;;4.89;45.03;95360.75;4202576;28;20443;-88
2021/03/26 08:00:00;;;;;;;24.85;11.60;;;;;;;5.01;44.58;95366.81;4203415;28;20052;-86
2021/03/26 08:02:37;;;;;;;18.50;10.77;;;;;;;4.36;45.79;95381.69;4220437;28;20074;-85
2021/03/26 08:04:48;;;;;;;18.75;10.82;;;;;;;4.75;45.29;95371.25;4222680;28;20044;-86
2021/03/26 08:07:23;;;;;;;18.52;10.95;;;;;;;5.08;44.83;95373.25;4208247;28;20052;-84
2021/03/26 08:09:57;;;;;;;14.70;10.32;;;;;;;5.27;44.34;95386.59;4234143;28;20117;-83
2021/03/26 08:12:29;;;;;;;17.48;9.82;;;;;;;4.68;44.09;95383.84;4227335;28;20054;-83
2021/03/26 08:14:39;;;;;;;27.33;11.15;;;;;;;4.59;45.45;95395.69;4218322;28;20083;-86
2021/03/26 08:17:12;;;;;;;19.08;10.95;;;;;;;4.62;45.40;95394.63;4222336;28;20643;-85
2021/03/26 08:19:18;;;;;;;17.58;11.23;;;;;;;4.79;45.70;95385.69;4213879;28;20059;-84
2021/03/26 08:21:26;;;;;;;18.40;10.80;;;;;;;5.04;44.74;95390.00;4235829;28;20062;-89
2021/03/26 08:23:42;;;;;;;20.67;11.20;;;;;;;5.23;45.05;95392.94;4219304;28;20106;-82
2021/03/26 08:26:15;;;;;;;19.45;10.75;;;;;;;5.50;44.58;95389.28;4238266;28;20066;-87
2021/03/26 08:28:31;;;;;;;18.00;11.43;;;;;;;5.82;43.94;95394.75;4221422;28;20052;-72
2021/03/26 08:31:20;;;;;;;18.27;10.52;;;;;;;5.93;43.48;95391.34;4231635;28;20050;-73
2021/03/26 08:33:30;;;;;;;21.67;12.65;;;;;;;5.88;44.27;95394.28;4211889;28;20090;-72
2021/03/26 08:35:56;;;;;;;22.23;12.00;;;;;;;5.76;43.64;95395.19;4197414;28;20480;-71
2021/03/26 08:38:16;;;;;;;26.88;15.25;;;;;;;5.82;44.50;95393.91;4195661;28;20056;-73
2021/03/26 08:40:29;;;;;;;17.90;10.68;;;;;;;6.17;42.77;95390.50;4208972;28;20052;-72
2021/03/26 08:42:37;;;;;;;20.50;11.48;;;;;;;5.91;43.46;95401.03;4195208;28;20472;-72
2021/03/26 08:44:39;;;;;;;21.60;10.18;;;;;;;5.18;43.21;95407.19;4200463;28;20369;-72
2021/03/26 08:46:45;;;;;;;20.60;12.23;;;;;;;5.30;44.18;95398.53;4187443;28;20124;-72
2021/03/26 08:49:10;;;;;;;19.25;11.13;;;;;;;5.66;43.58;95396.81;4184558;28;20087;-73
2021/03/26 08:51:33;;;;;;;25.48;13.27;;;;;;;5.98;42.96;95396.22;4186378;28;20097;-74
2021/03/26 08:53:59;;;;;;;17.80;10.55;;;;;;;6.29;41.55;95394.78;4211604;28;20184;-73
2021/03/26 08:56:10;;;;;;;21.08;11.05;;;;;;;6.31;41.63;95392.91;4196568;28;20052;-73
2021/03/26 08:58:39;;;;;;;17.48;12.07;;;;;;;6.21;41.70;95399.72;4202311;28;20768;-71
2021/03/26 09:01:08;;;;;;;15.90;11.05;;;;;;;6.17;41.57;95403.50;4202987;28;20044;-71
2021/03/26 09:03:21;;;;;;;17.15;10.82;;;;;;;5.49;41.92;95405.84;4192851;28;20048;-72
2021/03/26 09:06:03;;;;;;;16.02;10.68;;;;;;;5.85;42.17;95401.47;4196400;28;20049;-73
2021/03/26 09:08:15;;;;;;;18.27;10.93;;;;;;;6.08;42.51;95399.81;4196803;28;20497;-73
2021/03/26 09:10:22;;;;;;;16.20;11.27;;;;;;;6.30;41.59;95401.63;4185472;28;20094;-75
2021/03/26 09:12:57;;;;;;;14.43;8.93;;;;;;;6.59;40.53;95404.63;4192851;28;20053;-72
2021/03/26 09:15:21;;;;;;;;;;;;;;;6.73;40.13;95395.75;4197620;28;20063;-74
2021/03/26 09:17:33;;;;;;;15.35;10.15;;;;;;;6.63;40.48;95407.84;4199960;28;19920;-73
2021/03/26 09:20:00;;;;;;;19.33;10.55;;;;;;;6.65;40.43;95405.97;4212178;28;20079;-72
2021/03/26 09:22:10;;;;;;;16.73;10.38;;;;;;;6.21;40.41;95399.72;4191384;28;20128;-73
2021/03/26 09:24:30;;;;;;;13.98;9.35;;;;;;;6.38;41.37;95399.28;4203143;28;20415;-73
2021/03/26 09:26:43;;;;;;;18.98;9.57;;;;;;;6.72;40.64;95399.31;4208146;28;20056;-76
2021/03/26 09:28:46;;;;;;;15.18;10.35;;;;;;;6.68;40.41;95390.91;4194758;28;20056;-72
2021/03/26 09:30:56;;;;;;;;;;;;;;;6.91;39.43;95388.31;4210420;28;20071;-71
2021/03/26 09:33:09;;;;;;;14.95;9.35;;;;;;;7.02;38.89;95393.50;4222384;28;20061;-72
2021/03/26 09:35:22;;;;;;;18.10;9.73;;;;;;;7.20;39.03;95400.81;4193702;28;20063;-72
2021/03/26 09:37:34;;;;;;;16.88;10.18;;;;;;;7.26;38.51;95392.53;4178124;28;20299;-72
2021/03/26 09:39:36;;;;;;;16.33;11.25;;;;;;;6.95;39.47;95398.38;4190567;28;20051;-74
2021/03/26 09:41:52;;;;;;;14.07;9.40;;;;;;;6.43;38.75;95402.38;4186497;28;20396;-72
2021/03/26 09:44:16;;;;;;;14.52;10.07;;;;;;;6.59;39.50;95396.00;4178867;28;20068;-73
2021/03/26 09:46:49;;;;;;;14.73;9.55;;;;;;;7.08;39.53;95398.25;4178429;28;20056;-74
2021/03/26 09:49:12;;;;;;;16.05;11.18;;;;;;;6.94;39.56;95399.31;4220276;28;20086;-75
2021/03/26 09:51:23;;;;;;;11.60;9.07;;;;;;;7.11;38.15;95381.53;4180921;28;20162;-73
2021/03/26 09:53:25;;;;;;;14.52;11.02;;;;;;;6.50;39.37;95398.38;4196863;28;20506;-71
2021/03/26 09:55:32;;;;;;;15.80;9.98;;;;;;;6.26;41.00;95395.84;4193149;28;20143;-74
2021/03/26 09:57:58;;;;;;;18.50;9.23;;;;;;;5.94;40.11;95404.28;4194900;28;20049;-71
2021/03/26 10:00:12;;;;;;;20.23;10.20;;;;;;;5.91;40.84;95398.44;4184929;28;20079;-74
2021/03/26 10:02:37;;;;;;;16.53;10.17;;;;;;;6.46;40.75;95389.13;4195337;28;20500;-72
2021/03/26 10:04:46;;;;;;;17.65;9.80;;;;;;;6.85;40.01;95389.59;4194521;28;20048;-71
2021/03/26 10:07:25;;;;;;;18.27;10.38;;;;;;;6.72;40.21;95397.53;4194897;28;20062;-75
2021/03/26 10:09:44;;;;;;;14.13;8.77;;;;;;;6.91;40.30;95388.31;4193729;28;20064;-74
2021/03/26 10:11:46;;;;;;;12.93;8.70;;;;;;;6.68;40.16;95383.09;4182976;28;20048;-75
2021/03/26 10:13:57;;;;;;;16.27;9.70;;;;;;;6.87;40.35;95374.69;4195963;28;20549;-74
2021/03/26 10:16:03;;;;;;;16.88;10.65;;;;;;;6.48;40.49;95384.63;4194901;28;20149;-73
2021/03/26 10:18:21;;;;;;;15.48;10.30;;;;;;;6.86;40.36;95375.66;4193972;28;20136;-73
2021/03/26 10:20:38;;;;;;;20.02;10.93;;;;;;;6.50;40.67;95380.13;4194327;28;20103;-70
2021/03/26 10:22:49;;;;;;;16.35;10.07;;;;;;;6.93;39.99;95376.81;4194433;28;20048;-73